sensor_id;sensor_type;location;lat;lon;timestamp;pressure;altitude;pressure_sealevel;temperature;humidity
43155;BME280;34212;51.018;13.586;2023-05-16T05:00:50;97539.56;;;12.52;75.68
43155;BME280;34212;51.018;13.586;2023-05-16T05:05:52;97542.47;;;12.57;75.66
43155;BME280;34212;51.018;13.586;2023-05-16T05:10:55;97543.53;;;12.56;75.27
43155;BME280;34212;51.018;13.586;2023-05-16T05:15:56;97559.75;;;12.54;75.75
43155;BME280;34212;51.018;13.586;2023-05-16T05:20:58;97557.28;;;12.53;75.69
43155;BME280;34212;51.018;13.586;2023-05-16T05:26:00;97568.13;;;12.44;75.65
43155;BME280;34212;51.018;13.586;2023-05-16T05:31:03;97568.53;;;12.41;75.80
43155;BME280;34212;51.018;13.586;2023-05-16T05:36:05;97575.91;;;12.39;75.57
43155;BME280;34212;51.018;13.586;2023-05-16T05:41:07;97578.19;;;12.42;75.49
43155;BME280;34212;51.018;13.586;2023-05-16T05:46:08;97581.75;;;12.50;75.78
43155;BME280;34212;51.018;13.586;2023-05-16T05:51:10;97591.22;;;12.52;75.82
43155;BME280;34212;51.018;13.586;2023-05-16T05:56:14;97595.69;;;12.45;75.63
43155;BME280;34212;51.018;13.586;2023-05-16T06:01:15;97601.38;;;12.29;75.81
43155;BME280;34212;51.018;13.586;2023-05-16T06:06:17;97603.50;;;12.12;76.02
43155;BME280;34212;51.018;13.586;2023-05-16T06:11:21;97621.88;;;11.93;76.32
43155;BME280;34212;51.018;13.586;2023-05-16T06:16:24;97630.56;;;11.80;76.72
43155;BME280;34212;51.018;13.586;2023-05-16T06:21:26;97618.88;;;11.82;76.79
43155;BME280;34212;51.018;13.586;2023-05-16T06:26:27;97630.66;;;11.87;76.35
43155;BME280;34212;51.018;13.586;2023-05-16T06:31:30;97624.28;;;11.88;76.66
43155;BME280;34212;51.018;13.586;2023-05-16T06:36:31;97633.44;;;11.79;76.40
43155;BME280;34212;51.018;13.586;2023-05-16T06:41:33;97633.75;;;11.69;76.45
43155;BME280;34212;51.018;13.586;2023-05-16T06:46:34;97641.94;;;11.68;76.80
43155;BME280;34212;51.018;13.586;2023-05-16T06:51:36;97641.94;;;11.68;76.53
43155;BME280;34212;51.018;13.586;2023-05-16T06:56:37;97641.13;;;11.67;76.82
43155;BME280;34212;51.018;13.586;2023-05-16T07:01:39;97638.50;;;11.74;76.75
43155;BME280;34212;51.018;13.586;2023-05-16T07:06:41;97639.53;;;11.73;76.38
43155;BME280;34212;51.018;13.586;2023-05-16T07:11:43;97642.22;;;11.73;76.28
43155;BME280;34212;51.018;13.586;2023-05-16T07:16:44;97649.13;;;11.67;75.98
43155;BME280;34212;51.018;13.586;2023-05-16T07:21:46;97665.00;;;11.69;75.96
43155;BME280;34212;51.018;13.586;2023-05-16T07:26:47;97670.72;;;11.66;75.87
43155;BME280;34212;51.018;13.586;2023-05-16T07:31:49;97666.38;;;11.65;75.61
43155;BME280;34212;51.018;13.586;2023-05-16T07:36:50;97683.34;;;11.57;74.98
43155;BME280;34212;51.018;13.586;2023-05-16T07:41:52;97669.72;;;11.52;75.25
43155;BME280;34212;51.018;13.586;2023-05-16T07:46:54;97679.97;;;11.48;75.48
43155;BME280;34212;51.018;13.586;2023-05-16T07:51:55;97686.72;;;11.44;75.29
43155;BME280;34212;51.018;13.586;2023-05-16T07:56:57;97679.44;;;11.38;75.28
43155;BME280;34212;51.018;13.586;2023-05-16T08:01:58;97686.44;;;11.39;75.51
43155;BME280;34212;51.018;13.586;2023-05-16T08:07:00;97698.13;;;11.38;75.58
43155;BME280;34212;51.018;13.586;2023-05-16T08:12:01;97687.19;;;11.33;75.50
43155;BME280;34212;51.018;13.586;2023-05-16T08:17:04;97702.19;;;11.34;75.91
43155;BME280;34212;51.018;13.586;2023-05-16T08:22:08;97705.41;;;11.44;75.70
43155;BME280;34212;51.018;13.586;2023-05-16T08:27:09;97716.91;;;11.45;75.69
43155;BME280;34212;51.018;13.586;2023-05-16T08:32:21;97719.78;;;11.43;75.63
43155;BME280;34212;51.018;13.586;2023-05-16T08:37:23;97725.84;;;11.37;75.37
43155;BME280;34212;51.018;13.586;2023-05-16T08:42:25;97732.84;;;11.38;75.90
43155;BME280;34212;51.018;13.586;2023-05-16T08:47:30;97739.38;;;11.50;75.60
43155;BME280;34212;51.018;13.586;2023-05-16T08:52:32;97754.44;;;11.58;75.26
43155;BME280;34212;51.018;13.586;2023-05-16T08:57:35;97768.91;;;11.64;75.33
43155;BME280;34212;51.018;13.586;2023-05-16T09:02:39;97751.41;;;11.61;74.96
43155;BME280;34212;51.018;13.586;2023-05-16T09:07:42;97756.50;;;11.56;75.33
43155;BME280;34212;51.018;13.586;2023-05-16T09:12:43;97752.34;;;11.53;75.62
43155;BME280;34212;51.018;13.586;2023-05-16T09:17:45;97760.97;;;11.55;75.35
43155;BME280;34212;51.018;13.586;2023-05-16T09:22:53;97765.13;;;11.58;75.16
43155;BME280;34212;51.018;13.586;2023-05-16T09:27:56;97770.09;;;11.61;75.71
43155;BME280;34212;51.018;13.586;2023-05-16T09:32:58;97779.66;;;11.70;75.56
43155;BME280;34212;51.018;13.586;2023-05-16T09:38:00;97793.72;;;11.79;75.14
43155;BME280;34212;51.018;13.586;2023-05-16T09:43:06;97788.84;;;11.83;74.98
43155;BME280;34212;51.018;13.586;2023-05-16T09:48:09;97796.13;;;11.89;74.74
43155;BME280;34212;51.018;13.586;2023-05-16T09:53:13;97796.78;;;11.91;74.78
43155;BME280;34212;51.018;13.586;2023-05-16T09:58:16;97802.19;;;11.97;74.83
43155;BME280;34212;51.018;13.586;2023-05-16T10:03:18;97815.19;;;12.00;74.98
43155;BME280;34212;51.018;13.586;2023-05-16T10:08:24;97810.94;;;12.06;74.78
43155;BME280;34212;51.018;13.586;2023-05-16T10:13:28;97802.34;;;12.11;74.59
43155;BME280;34212;51.018;13.586;2023-05-16T10:18:30;97804.38;;;12.09;74.55
43155;BME280;34212;51.018;13.586;2023-05-16T10:23:32;97802.72;;;12.08;74.16
43155;BME280;34212;51.018;13.586;2023-05-16T10:28:35;97804.38;;;12.09;74.56
43155;BME280;34212;51.018;13.586;2023-05-16T10:33:38;97804.91;;;12.19;74.75
43155;BME280;34212;51.018;13.586;2023-05-16T10:38:40;97798.78;;;12.25;74.55
43155;BME280;34212;51.018;13.586;2023-05-16T10:43:44;97799.03;;;12.30;74.48
43155;BME280;34212;51.018;13.586;2023-05-16T10:48:46;97812.88;;;12.34;74.25
43155;BME280;34212;51.018;13.586;2023-05-16T10:53:52;97801.31;;;12.33;73.80
43155;BME280;34212;51.018;13.586;2023-05-16T10:58:54;97800.50;;;12.33;74.17
43155;BME280;34212;51.018;13.586;2023-05-16T11:14:04;97802.13;;;12.55;73.56
43155;BME280;34212;51.018;13.586;2023-05-16T11:19:06;97796.72;;;12.98;73.69
43155;BME280;34212;51.018;13.586;2023-05-16T11:24:28;97785.09;;;13.47;72.34
43155;BME280;34212;51.018;13.586;2023-05-16T11:29:32;97783.38;;;13.74;72.06
43155;BME280;34212;51.018;13.586;2023-05-16T11:34:35;97779.34;;;14.05;71.13
43155;BME280;34212;51.018;13.586;2023-05-16T11:39:38;97776.47;;;14.13;70.58
43155;BME280;34212;51.018;13.586;2023-05-16T11:44:39;97769.03;;;14.08;70.70
43155;BME280;34212;51.018;13.586;2023-05-16T11:49:41;97774.81;;;14.05;70.29
43155;BME280;34212;51.018;13.586;2023-05-16T11:54:43;97770.69;;;14.29;70.39
43155;BME280;34212;51.018;13.586;2023-05-16T11:59:45;97765.41;;;14.63;69.64
43155;BME280;34212;51.018;13.586;2023-05-16T12:04:46;97775.31;;;14.75;69.55
43155;BME280;34212;51.018;13.586;2023-05-16T12:09:51;97774.47;;;14.82;68.81
43155;BME280;34212;51.018;13.586;2023-05-16T12:14:54;97773.03;;;14.72;68.58
43155;BME280;34212;51.018;13.586;2023-05-16T12:19:55;97767.44;;;14.61;68.68
43155;BME280;34212;51.018;13.586;2023-05-16T12:25:29;97785.78;;;14.50;68.49
43155;BME280;34212;51.018;13.586;2023-05-16T12:30:32;97795.88;;;14.28;69.16
43155;BME280;34212;51.018;13.586;2023-05-16T12:35:37;97802.47;;;14.13;68.88
43155;BME280;34212;51.018;13.586;2023-05-16T12:40:40;97812.28;;;13.92;69.24
43155;BME280;34212;51.018;13.586;2023-05-16T12:45:55;97806.69;;;13.80;69.10
43155;BME280;34212;51.018;13.586;2023-05-16T12:51:11;97794.28;;;13.79;69.02
43155;BME280;34212;51.018;13.586;2023-05-16T12:56:16;97806.06;;;13.85;68.86
43155;BME280;34212;51.018;13.586;2023-05-16T13:01:18;97813.56;;;13.96;68.89
43155;BME280;34212;51.018;13.586;2023-05-16T13:06:19;97822.69;;;14.15;68.38
43155;BME280;34212;51.018;13.586;2023-05-16T13:11:21;97827.25;;;14.35;67.65
43155;BME280;34212;51.018;13.586;2023-05-16T13:16:22;97838.00;;;14.48;67.82
43155;BME280;34212;51.018;13.586;2023-05-16T13:21:24;97830.22;;;14.60;67.16
43155;BME280;34212;51.018;13.586;2023-05-16T13:26:28;97845.50;;;14.59;67.59
43155;BME280;34212;51.018;13.586;2023-05-16T13:31:30;97848.81;;;14.61;67.87
43155;BME280;34212;51.018;13.586;2023-05-16T13:36:32;97846.28;;;14.40;67.59
43155;BME280;34212;51.018;13.586;2023-05-16T13:41:53;97854.09;;;14.35;67.17
43155;BME280;34212;51.018;13.586;2023-05-16T13:46:55;97853.44;;;14.26;67.64
43155;BME280;34212;51.018;13.586;2023-05-16T13:51:57;97850.72;;;14.13;67.95
43155;BME280;34212;51.018;13.586;2023-05-16T13:56:59;97854.44;;;14.05;67.65
43155;BME280;34212;51.018;13.586;2023-05-16T14:02:02;97859.09;;;13.90;67.74
43155;BME280;34212;51.018;13.586;2023-05-16T14:07:04;97847.28;;;13.77;67.68
43155;BME280;34212;51.018;13.586;2023-05-16T14:12:05;97837.41;;;13.78;68.06
43155;BME280;34212;51.018;13.586;2023-05-16T14:17:08;97845.88;;;13.81;68.38
43155;BME280;34212;51.018;13.586;2023-05-16T14:22:09;97837.78;;;13.68;68.06
43155;BME280;34212;51.018;13.586;2023-05-16T14:27:11;97850.47;;;13.53;68.49
43155;BME280;34212;51.018;13.586;2023-05-16T14:32:12;97847.06;;;13.37;68.32
43155;BME280;34212;51.018;13.586;2023-05-16T14:37:15;97833.97;;;13.21;68.29
43155;BME280;34212;51.018;13.586;2023-05-16T14:42:17;97833.72;;;13.16;68.05
43155;BME280;34212;51.018;13.586;2023-05-16T14:47:18;97847.28;;;13.14;68.25
43155;BME280;34212;51.018;13.586;2023-05-16T14:52:20;97869.16;;;13.18;68.37
43155;BME280;34212;51.018;13.586;2023-05-16T14:57:22;97879.88;;;13.18;68.17
43155;BME280;34212;51.018;13.586;2023-05-16T15:02:23;97876.81;;;13.21;68.24
43155;BME280;34212;51.018;13.586;2023-05-16T15:07:27;97880.94;;;13.24;68.52
43155;BME280;34212;51.018;13.586;2023-05-16T15:12:28;97880.50;;;13.20;68.62
43155;BME280;34212;51.018;13.586;2023-05-16T15:17:30;97885.47;;;13.23;68.46
43155;BME280;34212;51.018;13.586;2023-05-16T15:22:31;97874.81;;;13.30;68.11
43155;BME280;34212;51.018;13.586;2023-05-16T15:27:33;97874.50;;;13.39;68.38
43155;BME280;34212;51.018;13.586;2023-05-16T15:32:34;97864.66;;;13.47;68.28
43155;BME280;34212;51.018;13.586;2023-05-16T15:37:36;97859.91;;;13.49;67.80
43155;BME280;34212;51.018;13.586;2023-05-16T15:42:37;97871.69;;;13.54;67.88
43155;BME280;34212;51.018;13.586;2023-05-16T15:47:40;97857.16;;;13.77;67.48
43155;BME280;34212;51.018;13.586;2023-05-16T15:52:42;97859.94;;;13.97;67.60
43155;BME280;34212;51.018;13.586;2023-05-16T15:57:43;97864.16;;;14.19;66.71
43155;BME280;34212;51.018;13.586;2023-05-16T16:02:45;97872.06;;;14.41;66.51
43155;BME280;34212;51.018;13.586;2023-05-16T16:07:48;97868.59;;;14.53;65.72
43155;BME280;34212;51.018;13.586;2023-05-16T16:13:00;97850.88;;;14.59;65.07
43155;BME280;34212;51.018;13.586;2023-05-16T16:18:01;97848.19;;;14.72;65.31
43155;BME280;34212;51.018;13.586;2023-05-16T16:23:03;97842.63;;;14.94;64.81
43155;BME280;34212;51.018;13.586;2023-05-16T16:28:05;97844.22;;;15.48;63.64
43155;BME280;34212;51.018;13.586;2023-05-16T16:33:06;97843.63;;;16.04;62.59
43155;BME280;34212;51.018;13.586;2023-05-16T16:38:08;97844.53;;;17.43;59.73
43155;BME280;34212;51.018;13.586;2023-05-16T16:43:10;97846.38;;;18.23;58.15
43155;BME280;34212;51.018;13.586;2023-05-16T16:48:11;97860.25;;;17.28;58.05
43155;BME280;34212;51.018;13.586;2023-05-16T16:53:13;97863.56;;;16.35;58.54
43155;BME280;34212;51.018;13.586;2023-05-16T16:58:14;97866.91;;;15.79;59.25
43155;BME280;34212;51.018;13.586;2023-05-16T17:03:16;97870.66;;;15.78;59.98
43155;BME280;34212;51.018;13.586;2023-05-16T17:08:18;97871.09;;;15.61;60.37
43155;BME280;34212;51.018;13.586;2023-05-16T17:13:20;97892.19;;;15.58;60.02
43155;BME280;34212;51.018;13.586;2023-05-16T17:18:22;97881.22;;;15.59;60.01
43155;BME280;34212;51.018;13.586;2023-05-16T17:23:27;97895.44;;;15.66;60.20
43155;BME280;34212;51.018;13.586;2023-05-16T17:28:28;97885.34;;;15.68;60.11
43155;BME280;34212;51.018;13.586;2023-05-16T17:33:31;97879.31;;;15.66;60.26
43155;BME280;34212;51.018;13.586;2023-05-16T17:38:33;97885.53;;;15.60;60.58
43155;BME280;34212;51.018;13.586;2023-05-16T17:43:35;97888.66;;;15.44;60.83
43155;BME280;34212;51.018;13.586;2023-05-16T17:48:36;97898.81;;;15.22;60.73
43155;BME280;34212;51.018;13.586;2023-05-16T17:53:38;97890.97;;;15.07;61.42
43155;BME280;34212;51.018;13.586;2023-05-16T17:58:39;97889.72;;;14.96;61.91
43155;BME280;34212;51.018;13.586;2023-05-16T18:03:42;97883.09;;;14.86;62.39
43155;BME280;34212;51.018;13.586;2023-05-16T18:08:43;97904.16;;;14.75;62.11
43155;BME280;34212;51.018;13.586;2023-05-16T18:13:45;97897.53;;;14.58;60.53
43155;BME280;34212;51.018;13.586;2023-05-16T18:18:46;97901.13;;;14.30;60.38
43155;BME280;34212;51.018;13.586;2023-05-16T18:23:48;97908.47;;;14.08;60.04
43155;BME280;34212;51.018;13.586;2023-05-16T18:28:49;97910.44;;;13.86;59.80
43155;BME280;34212;51.018;13.586;2023-05-16T18:33:51;97906.41;;;13.69;60.22
43155;BME280;34212;51.018;13.586;2023-05-16T18:38:52;97917.00;;;13.49;60.35
43155;BME280;34212;51.018;13.586;2023-05-16T18:43:55;97916.84;;;13.29;61.20
43155;BME280;34212;51.018;13.586;2023-05-16T18:48:56;97930.50;;;13.13;61.24
43155;BME280;34212;51.018;13.586;2023-05-16T18:53:58;97936.94;;;12.97;61.72
43155;BME280;34212;51.018;13.586;2023-05-16T18:58:59;97939.69;;;12.82;61.87
43155;BME280;34212;51.018;13.586;2023-05-16T19:04:01;97950.63;;;12.66;61.88
43155;BME280;34212;51.018;13.586;2023-05-16T19:09:03;97956.84;;;12.52;61.78
43155;BME280;34212;51.018;13.586;2023-05-16T19:14:05;97957.06;;;12.35;61.95
43155;BME280;34212;51.018;13.586;2023-05-16T19:19:07;97962.63;;;12.19;62.16
43155;BME280;34212;51.018;13.586;2023-05-16T19:24:08;97968.34;;;12.01;62.34
43155;BME280;34212;51.018;13.586;2023-05-16T19:29:10;97962.19;;;11.86;62.40
43155;BME280;34212;51.018;13.586;2023-05-16T19:34:11;97968.97;;;11.73;62.50
43155;BME280;34212;51.018;13.586;2023-05-16T19:39:13;97964.91;;;11.63;62.48
43155;BME280;34212;51.018;13.586;2023-05-16T19:44:15;97962.50;;;11.53;62.33
43155;BME280;34212;51.018;13.586;2023-05-16T19:49:16;97970.59;;;11.45;62.80
43155;BME280;34212;51.018;13.586;2023-05-16T19:54:20;97985.50;;;11.39;62.40
43155;BME280;34212;51.018;13.586;2023-05-16T19:59:22;97995.25;;;11.32;62.78
43155;BME280;34212;51.018;13.586;2023-05-16T20:04:24;97997.97;;;11.24;62.92
43155;BME280;34212;51.018;13.586;2023-05-16T20:09:25;98001.34;;;11.18;62.89
43155;BME280;34212;51.018;13.586;2023-05-16T20:14:28;98001.06;;;11.13;62.68
43155;BME280;34212;51.018;13.586;2023-05-16T20:19:30;98006.16;;;10.99;62.18
43155;BME280;34212;51.018;13.586;2023-05-16T20:24:32;98007.56;;;10.87;62.84
43155;BME280;34212;51.018;13.586;2023-05-16T20:29:33;98007.31;;;10.74;62.79
43155;BME280;34212;51.018;13.586;2023-05-16T20:34:35;98017.38;;;10.63;62.34
43155;BME280;34212;51.018;13.586;2023-05-16T20:39:37;98006.13;;;10.53;62.64
43155;BME280;34212;51.018;13.586;2023-05-16T20:44:40;98014.16;;;10.45;62.32
43155;BME280;34212;51.018;13.586;2023-05-16T20:49:41;98020.53;;;10.36;62.55
43155;BME280;34212;51.018;13.586;2023-05-16T20:54:43;98025.03;;;10.27;62.76
43155;BME280;34212;51.018;13.586;2023-05-16T20:59:44;98023.03;;;10.21;62.35
43155;BME280;34212;51.018;13.586;2023-05-16T21:04:46;98023.72;;;10.15;62.44
43155;BME280;34212;51.018;13.586;2023-05-16T21:09:47;98033.41;;;10.08;61.97
43155;BME280;34212;51.018;13.586;2023-05-16T21:14:49;98037.78;;;10.01;61.73
43155;BME280;34212;51.018;13.586;2023-05-16T21:19:50;98050.09;;;9.93;61.68
43155;BME280;34212;51.018;13.586;2023-05-16T21:24:52;98043.13;;;9.84;61.52
43155;BME280;34212;51.018;13.586;2023-05-16T21:29:54;98049.31;;;9.77;61.49
43155;BME280;34212;51.018;13.586;2023-05-16T21:34:55;98041.16;;;9.70;61.69
43155;BME280;34212;51.018;13.586;2023-05-16T21:39:57;98055.63;;;9.67;61.27
43155;BME280;34212;51.018;13.586;2023-05-16T21:44:59;98052.47;;;9.64;61.27
43155;BME280;34212;51.018;13.586;2023-05-16T21:50:00;98049.31;;;9.60;61.69
43155;BME280;34212;51.018;13.586;2023-05-16T21:55:03;98055.63;;;9.59;61.75
